createdAt,value
2019-02-25T00:01:43.523Z,79.20
2019-02-25T00:04:11.190Z,79.30
2019-02-25T00:06:38.786Z,79.40
2019-02-25T00:09:06.664Z,79.50
2019-02-25T00:11:35.631Z,79.70
2019-02-25T00:14:03.195Z,79.90
2019-02-25T00:16:32.517Z,80.10
2019-02-25T00:19:00.100Z,80.20
2019-02-25T00:21:27.611Z,80.30
2019-02-25T00:23:55.207Z,80.50
2019-02-25T00:26:22.812Z,80.70
2019-02-25T00:28:50.224Z,80.80
2019-02-25T00:31:17.806Z,81.00
2019-02-25T00:33:46.330Z,81.10
2019-02-25T00:36:14.538Z,81.30
2019-02-25T00:38:42.013Z,81.30
2019-02-25T00:41:09.600Z,81.50
2019-02-25T00:43:37.014Z,81.70
2019-02-25T00:46:04.591Z,81.90
2019-02-25T00:48:32.093Z,81.90
2019-02-25T00:50:59.473Z,82.20
2019-02-25T00:53:27.027Z,82.30
2019-02-25T00:55:54.467Z,82.40
2019-02-25T00:58:21.932Z,82.60
2019-02-25T01:00:49.421Z,82.60
2019-02-25T01:03:16.932Z,82.70
2019-02-25T01:05:44.503Z,82.90
2019-02-25T01:08:11.963Z,83.10
2019-02-25T01:10:39.508Z,83.30
2019-02-25T01:13:07.044Z,83.50
2019-02-25T01:15:34.630Z,83.70
2019-02-25T01:18:02.172Z,83.70
2019-02-25T01:20:29.674Z,83.80
2019-02-25T01:22:57.142Z,83.90
2019-02-25T01:25:24.554Z,84.10
2019-02-25T01:27:52.314Z,84.10
2019-02-25T01:30:20.471Z,84.10
2019-02-25T01:32:48.028Z,84.20
2019-02-25T01:35:15.430Z,84.30
2019-02-25T01:37:42.853Z,84.60
2019-02-25T01:40:10.397Z,84.50
2019-02-25T01:42:37.677Z,84.70
2019-02-25T01:45:06.796Z,84.70
2019-02-25T01:47:34.406Z,84.90
2019-02-25T01:50:01.943Z,84.90
2019-02-25T01:52:29.429Z,85.00
2019-02-25T01:54:56.984Z,85.20
2019-02-25T01:57:24.423Z,85.30
2019-02-25T01:59:51.940Z,85.50
2019-02-25T02:02:19.439Z,85.50
2019-02-25T02:04:47.028Z,85.60
2019-02-25T02:07:14.533Z,85.70
2019-02-25T02:09:42.134Z,85.80
2019-02-25T02:12:09.628Z,85.90
2019-02-25T02:14:37.299Z,86.00
2019-02-25T02:17:04.745Z,86.00
2019-02-25T02:19:32.364Z,86.10
2019-02-25T02:21:59.852Z,86.20
2019-02-25T02:24:28.327Z,86.30
2019-02-25T02:26:55.965Z,86.30
2019-02-25T02:29:23.497Z,86.40
2019-02-25T02:31:50.926Z,86.60
2019-02-25T02:34:18.430Z,86.70
2019-02-25T02:36:45.984Z,86.80
2019-02-25T02:39:13.555Z,86.90
2019-02-25T02:42:24.728Z,87.60
2019-02-25T02:44:54.862Z,87.80
2019-02-25T02:47:37.734Z,88.80
2019-02-25T02:50:08.083Z,88.90
2019-02-25T02:52:35.659Z,88.80
2019-02-25T02:55:03.380Z,88.80
2019-02-25T02:57:31.027Z,88.80
2019-02-25T02:59:58.503Z,88.90
2019-02-25T03:02:26.013Z,88.90
2019-02-25T03:04:53.471Z,88.90
2019-02-25T03:07:20.784Z,89.00
2019-02-25T03:09:48.232Z,89.00
2019-02-25T03:12:15.856Z,89.10
2019-02-25T03:14:43.371Z,89.10
2019-02-25T03:17:10.843Z,89.20
2019-02-25T03:19:38.283Z,89.20
2019-02-25T03:22:06.874Z,89.40
2019-02-25T03:24:34.299Z,89.50
2019-02-25T03:27:01.800Z,89.60
2019-02-25T03:29:29.160Z,89.60
2019-02-25T03:31:56.589Z,89.70
2019-02-25T03:34:24.146Z,89.80
2019-02-25T03:36:51.586Z,89.80
2019-02-25T03:39:18.986Z,90.00
2019-02-25T03:41:46.559Z,90.00
2019-02-25T03:44:13.945Z,90.00
2019-02-25T03:46:41.397Z,90.00
2019-02-25T03:49:08.949Z,90.00
2019-02-25T03:51:36.482Z,90.10
2019-02-25T03:54:03.947Z,90.10
2019-02-25T03:56:31.353Z,90.10
2019-02-25T03:59:01.923Z,90.20
2019-02-25T04:01:29.554Z,90.20
2019-02-25T04:03:57.098Z,90.20
2019-02-25T04:06:24.579Z,90.30
2019-02-25T04:08:52.107Z,90.30
2019-02-25T04:11:19.634Z,90.40
2019-02-25T04:13:47.019Z,90.50
2019-02-25T04:16:14.524Z,90.50
2019-02-25T04:18:42.018Z,90.60
2019-02-25T04:21:09.355Z,90.60
2019-02-25T04:23:36.854Z,90.60
2019-02-25T04:26:04.173Z,90.90
2019-02-25T04:28:32.713Z,90.70
2019-02-25T04:31:01.159Z,90.70
2019-02-25T04:33:28.725Z,90.70
2019-02-25T04:35:56.248Z,90.70
2019-02-25T04:38:23.774Z,90.80
2019-02-25T04:40:51.198Z,90.80
2019-02-25T04:43:19.803Z,90.80
2019-02-25T04:45:47.266Z,90.80
2019-02-25T04:48:15.123Z,90.80
2019-02-25T04:50:42.763Z,91.20
2019-02-25T04:53:10.166Z,90.90
2019-02-25T04:55:37.675Z,90.90
2019-02-25T04:58:06.385Z,90.90
2019-02-25T05:00:35.318Z,90.90
2019-02-25T05:03:02.887Z,91.00
2019-02-25T05:05:30.641Z,91.10
2019-02-25T05:07:57.939Z,91.10
2019-02-25T05:10:25.584Z,91.20
2019-02-25T05:12:58.145Z,91.20
2019-02-25T05:15:27.195Z,91.30
2019-02-25T05:17:54.641Z,91.40
2019-02-25T05:20:22.185Z,91.40
2019-02-25T05:22:49.744Z,91.40
2019-02-25T05:25:17.435Z,91.40
2019-02-25T05:27:44.863Z,91.40
2019-02-25T05:30:12.297Z,91.40
2019-02-25T05:32:39.822Z,91.50
2019-02-25T05:35:07.935Z,91.50
2019-02-25T05:37:35.358Z,91.50
2019-02-25T05:40:03.147Z,91.50
2019-02-25T05:42:30.682Z,91.60
2019-02-25T05:44:58.183Z,91.60
2019-02-25T05:47:25.802Z,91.60
2019-02-25T05:49:53.344Z,91.60
2019-02-25T05:52:21.200Z,91.70
2019-02-25T05:54:48.687Z,91.70
2019-02-25T05:57:16.141Z,91.80
2019-02-25T05:59:43.741Z,91.80
2019-02-25T06:02:11.282Z,91.80
2019-02-25T06:04:38.743Z,91.80
2019-02-25T06:07:06.226Z,91.90
2019-02-25T06:09:33.690Z,91.90
2019-02-25T06:12:01.212Z,92.00
2019-02-25T06:14:28.658Z,92.00
2019-02-25T06:16:56.280Z,92.10
2019-02-25T06:19:23.693Z,92.10
2019-02-25T06:21:51.154Z,92.10
2019-02-25T06:24:18.647Z,92.10
2019-02-25T06:26:46.082Z,92.20
2019-02-25T06:29:13.731Z,92.10
2019-02-25T06:31:41.312Z,92.20
2019-02-25T06:34:08.858Z,92.10
2019-02-25T06:36:36.369Z,92.20
2019-02-25T06:39:05.760Z,92.20
2019-02-25T06:41:33.402Z,92.20
2019-02-25T06:44:00.776Z,92.30
2019-02-25T06:46:29.933Z,92.50
2019-02-25T06:48:57.345Z,92.30
2019-02-25T06:51:24.848Z,92.30
2019-02-25T06:53:52.373Z,92.40
2019-02-25T06:56:19.899Z,92.40
2019-02-25T06:58:47.273Z,92.40
2019-02-25T07:01:14.780Z,92.40
2019-02-25T07:03:43.682Z,92.50
2019-02-25T07:06:24.878Z,92.50
2019-02-25T07:09:13.071Z,92.50
2019-02-25T07:11:58.783Z,92.50
2019-02-25T07:14:54.691Z,92.50
2019-02-25T07:17:53.610Z,92.50
2019-02-25T07:20:32.756Z,92.40
2019-02-25T07:23:08.226Z,92.40
2019-02-25T07:25:54.141Z,92.40
2019-02-25T07:28:39.818Z,92.50
2019-02-25T07:31:45.417Z,92.60
2019-02-25T07:34:35.269Z,92.60
2019-02-25T07:37:12.579Z,92.60
2019-02-25T07:40:11.642Z,92.60
2019-02-25T07:42:58.599Z,92.60
2019-02-25T07:45:44.459Z,92.60
2019-02-25T07:48:17.528Z,92.60
2019-02-25T07:51:13.393Z,92.60
2019-02-25T07:53:59.400Z,92.70
2019-02-25T07:56:45.621Z,92.70
2019-02-25T07:59:38.589Z,92.70
2019-02-25T08:02:16.187Z,92.80
2019-02-25T08:05:08.004Z,92.80
2019-02-25T08:07:55.615Z,92.80
2019-02-25T08:10:41.599Z,92.90
2019-02-25T08:13:26.975Z,92.80
2019-02-25T08:16:14.103Z,92.70
2019-02-25T08:19:03.638Z,92.90
2019-02-25T08:21:47.219Z,92.50
2019-02-25T08:24:30.661Z,92.50
2019-02-25T08:27:14.868Z,92.70
2019-02-25T08:29:48.793Z,92.40
2019-02-25T08:32:38.741Z,92.40
2019-02-25T08:35:19.601Z,92.30
2019-02-25T08:38:25.540Z,92.30
2019-02-25T08:41:29.034Z,92.20
2019-02-25T08:44:11.462Z,92.00
2019-02-25T08:46:52.899Z,91.90
2019-02-25T08:49:23.787Z,91.80
2019-02-25T08:51:51.193Z,91.60
2019-02-25T08:54:18.650Z,91.90
2019-02-25T08:56:46.127Z,91.40
2019-02-25T08:59:13.680Z,91.00
2019-02-25T09:01:41.154Z,90.90
2019-02-25T09:04:08.662Z,90.80
2019-02-25T09:06:36.205Z,90.70
2019-02-25T09:09:05.187Z,90.50
2019-02-25T09:11:34.051Z,90.40
2019-02-25T09:14:01.536Z,90.20
2019-02-25T09:16:29.064Z,90.00
2019-02-25T09:18:57.935Z,89.50
2019-02-25T09:21:31.661Z,89.40
2019-02-25T09:23:54.763Z,89.10
2019-02-25T09:26:22.397Z,88.80
2019-02-25T09:28:51.040Z,88.30
2019-02-25T09:31:18.420Z,87.70
2019-02-25T09:33:45.883Z,86.90
2019-02-25T09:36:14.625Z,86.00
2019-02-25T09:38:42.110Z,85.20
2019-02-25T09:41:09.601Z,85.40
2019-02-25T09:43:37.076Z,84.10
2019-02-25T09:46:04.527Z,83.70
2019-02-25T09:48:33.138Z,83.10
2019-02-25T09:51:01.266Z,82.70
2019-02-25T09:53:28.594Z,81.90
2019-02-25T09:55:56.034Z,81.60
2019-02-25T09:58:23.436Z,80.90
2019-02-25T10:00:50.843Z,80.40
2019-02-25T10:03:19.098Z,80.10
2019-02-25T10:05:46.555Z,79.50
2019-02-25T10:08:14.008Z,79.70
2019-02-25T10:10:41.716Z,78.40
2019-02-25T10:13:09.365Z,77.80
2019-02-25T10:15:36.852Z,76.90
2019-02-25T10:18:04.576Z,76.50
2019-02-25T10:20:32.118Z,76.20
2019-02-25T10:22:59.615Z,75.70
2019-02-25T10:25:27.051Z,75.30
2019-02-25T10:27:54.451Z,74.80
2019-02-25T10:30:23.025Z,74.20
2019-02-25T10:32:50.425Z,73.60
2019-02-25T10:35:18.566Z,72.90
2019-02-25T10:37:46.090Z,66.50
2019-02-25T10:40:15.509Z,67.00
2019-02-25T10:42:43.085Z,65.30
2019-02-25T10:45:13.504Z,65.60
2019-02-25T10:47:42.062Z,65.60
2019-02-25T10:50:10.946Z,65.80
2019-02-25T10:52:39.252Z,65.40
2019-02-25T10:55:12.969Z,66.00
2019-02-25T10:57:40.606Z,65.90
2019-02-25T11:00:11.733Z,66.00
2019-02-25T11:02:44.187Z,66.10
2019-02-25T11:05:09.447Z,66.20
2019-02-25T11:07:37.410Z,66.20
2019-02-25T11:10:25.889Z,66.10
2019-02-25T11:12:55.056Z,64.90
2019-02-25T11:15:22.714Z,64.90
2019-02-25T11:17:51.663Z,64.60
2019-02-25T11:20:19.527Z,64.30
2019-02-25T11:22:48.530Z,64.10
2019-02-25T11:25:16.215Z,63.80
2019-02-25T11:27:43.630Z,63.50
2019-02-25T11:30:12.141Z,63.10
2019-02-25T11:32:40.842Z,62.80
2019-02-25T11:35:09.083Z,62.20
2019-02-25T11:37:37.662Z,62.30
2019-02-25T11:40:06.234Z,62.20
2019-02-25T11:42:33.928Z,62.10
2019-02-25T11:45:04.461Z,61.80
2019-02-25T11:47:32.425Z,61.30
2019-02-25T11:49:59.774Z,61.30
2019-02-25T11:52:27.379Z,61.10
2019-02-25T11:54:55.015Z,60.70
2019-02-25T11:57:22.415Z,61.20
2019-02-25T11:59:49.931Z,60.20
2019-02-25T12:02:25.141Z,60.10
2019-02-25T12:04:48.499Z,60.00
2019-02-25T12:07:16.216Z,59.80
2019-02-25T12:09:43.702Z,59.70
2019-02-25T12:12:11.275Z,59.50
2019-02-25T12:14:39.861Z,59.20
2019-02-25T12:17:07.362Z,59.00
2019-02-25T12:19:34.803Z,58.80
2019-02-25T12:22:02.119Z,56.70
2019-02-25T12:24:29.539Z,56.80
2019-02-25T12:26:56.927Z,55.50
2019-02-25T12:29:24.488Z,55.10
2019-02-25T12:31:51.989Z,54.70
2019-02-25T12:34:19.450Z,54.40
2019-02-25T12:36:47.827Z,54.30
2019-02-25T12:39:15.519Z,54.30
2019-02-25T12:41:43.322Z,54.00
2019-02-25T12:44:10.789Z,52.80
2019-02-25T12:46:38.344Z,52.10
2019-02-25T12:49:05.784Z,51.60
2019-02-25T12:51:33.534Z,51.30
2019-02-25T12:54:00.931Z,51.40
2019-02-25T12:56:28.654Z,51.30
2019-02-25T12:58:56.179Z,51.80
2019-02-25T13:01:23.652Z,51.20
2019-02-25T13:03:50.990Z,50.90
2019-02-25T13:06:18.298Z,50.30
2019-02-25T13:08:45.732Z,49.80
2019-02-25T13:11:13.258Z,48.80
2019-02-25T13:13:40.779Z,47.90
2019-02-25T13:16:08.382Z,47.30
2019-02-25T13:18:35.912Z,46.60
2019-02-25T13:21:03.929Z,46.10
2019-02-25T13:23:31.698Z,46.00
2019-02-25T13:26:07.265Z,46.20
2019-02-25T13:28:30.643Z,46.30
2019-02-25T13:30:58.850Z,45.50
2019-02-25T13:33:27.039Z,45.50
2019-02-25T13:35:56.911Z,45.50
2019-02-25T13:38:23.939Z,45.10
2019-02-25T13:40:51.508Z,45.30
2019-02-25T13:43:19.078Z,45.60
2019-02-25T13:45:46.667Z,45.10
2019-02-25T13:48:15.322Z,44.90
2019-02-25T13:50:42.798Z,45.00
2019-02-25T13:53:10.427Z,44.20
2019-02-25T13:55:38.159Z,44.10
2019-02-25T13:58:05.753Z,43.90
2019-02-25T14:00:33.438Z,44.00
2019-02-25T14:03:03.197Z,44.20
2019-02-25T14:05:30.665Z,44.40
2019-02-25T14:07:58.371Z,44.70
2019-02-25T14:10:25.939Z,44.30
2019-02-25T14:12:53.450Z,44.10
2019-02-25T14:15:21.352Z,43.80
2019-02-25T14:17:49.023Z,43.30
2019-02-25T14:20:17.213Z,39.20
2019-02-25T14:22:44.788Z,38.70
2019-02-25T14:25:14.297Z,36.40
2019-02-25T14:27:41.736Z,37.30
2019-02-25T14:30:13.443Z,37.60
2019-02-25T14:32:41.071Z,37.50
2019-02-25T14:35:08.950Z,37.40
2019-02-25T14:37:36.723Z,36.10
2019-02-25T14:40:06.134Z,35.60
2019-02-25T14:42:36.371Z,36.20
2019-02-25T14:45:09.435Z,36.50
2019-02-25T14:47:39.561Z,36.70
2019-02-25T14:50:11.055Z,36.90
2019-02-25T14:52:38.821Z,37.30
2019-02-25T14:55:09.371Z,36.90
2019-02-25T14:57:38.209Z,36.80
2019-02-25T15:00:09.569Z,36.80
2019-02-25T15:02:41.039Z,36.80
2019-02-25T15:05:08.515Z,36.60
2019-02-25T15:07:36.055Z,36.70
2019-02-25T15:10:05.239Z,35.70
2019-02-25T15:12:35.771Z,36.00
2019-02-25T15:15:06.526Z,36.30
2019-02-25T15:17:34.161Z,35.90
2019-02-25T15:20:01.653Z,35.70
2019-02-25T15:22:32.025Z,36.00
2019-02-25T15:25:00.153Z,36.30
2019-02-25T15:27:27.709Z,36.20
2019-02-25T15:29:55.263Z,36.40
2019-02-25T15:32:22.760Z,36.40
2019-02-25T15:34:50.786Z,36.40
2019-02-25T15:37:19.734Z,36.20
2019-02-25T15:39:47.569Z,36.50
2019-02-25T15:42:17.608Z,36.80
2019-02-25T15:44:47.232Z,37.20
2019-02-25T15:47:15.101Z,37.20
2019-02-25T15:49:42.872Z,36.70
2019-02-25T15:52:10.666Z,37.00
2019-02-25T15:54:39.374Z,36.10
2019-02-25T15:57:07.703Z,37.10
2019-02-25T15:59:35.145Z,36.80
2019-02-25T16:02:03.489Z,36.90
2019-02-25T16:04:33.775Z,37.20
2019-02-25T16:07:04.451Z,37.50
2019-02-25T16:09:31.562Z,37.30
2019-02-25T16:12:00.988Z,37.50
2019-02-25T16:14:29.797Z,37.80
2019-02-25T16:16:57.603Z,38.10
2019-02-25T16:19:32.953Z,38.20
2019-02-25T16:21:58.208Z,38.40
2019-02-25T16:24:24.866Z,38.70
2019-02-25T16:26:53.706Z,38.90
2019-02-25T16:29:21.716Z,39.10
2019-02-25T16:31:51.029Z,38.90
2019-02-25T16:34:20.547Z,39.70
2019-02-25T16:36:51.480Z,38.70
2019-02-25T16:39:17.313Z,39.10
2019-02-25T16:41:45.739Z,39.40
2019-02-25T16:44:14.754Z,39.70
2019-02-25T16:46:44.459Z,40.00
2019-02-25T16:49:12.965Z,40.30
2019-02-25T16:51:40.591Z,40.40
2019-02-25T16:54:11.025Z,40.60
2019-02-25T16:56:38.189Z,40.80
2019-02-25T16:59:10.904Z,41.10
2019-02-25T17:01:37.539Z,41.20
2019-02-25T17:04:05.447Z,41.50
2019-02-25T17:06:34.281Z,41.80
2019-02-25T17:09:02.930Z,41.90
2019-02-25T17:11:32.506Z,42.20
2019-02-25T17:14:01.608Z,42.50
2019-02-25T17:16:29.378Z,42.70
2019-02-25T17:19:00.646Z,42.80
2019-02-25T17:21:28.332Z,42.80
2019-02-25T17:23:58.050Z,43.00
2019-02-25T17:26:25.635Z,43.20
2019-02-25T17:28:53.804Z,43.50
2019-02-25T17:31:21.369Z,43.70
2019-02-25T17:33:49.627Z,43.80
2019-02-25T17:36:18.993Z,44.00
2019-02-25T17:38:47.566Z,44.20
2019-02-25T17:41:16.683Z,44.30
2019-02-25T17:43:44.382Z,44.60
2019-02-25T17:46:12.779Z,44.80
2019-02-25T17:48:42.668Z,45.00
2019-02-25T17:51:10.266Z,45.20
2019-02-25T17:53:38.172Z,45.40
2019-02-25T17:56:05.733Z,45.60
2019-02-25T17:58:33.358Z,46.10
2019-02-25T18:01:02.907Z,46.90
2019-02-25T18:03:30.384Z,46.30
2019-02-25T18:05:58.970Z,47.10
2019-02-25T18:08:28.083Z,47.20
2019-02-25T18:10:56.934Z,47.50
2019-02-25T18:13:25.869Z,47.60
2019-02-25T18:15:55.670Z,47.70
2019-02-25T18:18:24.521Z,47.80
2019-02-25T18:20:53.609Z,48.00
2019-02-25T18:23:22.638Z,48.00
2019-02-25T18:25:50.151Z,48.00
2019-02-25T18:28:18.328Z,48.10
2019-02-25T18:30:46.966Z,48.10
2019-02-25T18:33:14.906Z,48.20
2019-02-25T18:35:43.453Z,48.20
2019-02-25T18:38:11.770Z,48.20
2019-02-25T18:40:41.347Z,48.20
2019-02-25T18:43:09.392Z,48.20
2019-02-25T18:45:38.404Z,48.30
2019-02-25T18:48:07.904Z,48.40
2019-02-25T18:50:35.566Z,48.40
2019-02-25T18:53:03.311Z,48.90
2019-02-25T18:55:33.966Z,48.40
2019-02-25T18:58:01.115Z,48.40
2019-02-25T19:00:35.271Z,48.50
2019-02-25T19:03:06.346Z,48.60
2019-02-25T19:05:35.089Z,48.60
2019-02-25T19:08:07.292Z,48.70
2019-02-25T19:10:34.820Z,48.70
2019-02-25T19:13:02.616Z,48.70
2019-02-25T19:15:30.226Z,48.80
2019-02-25T19:17:58.103Z,48.70
2019-02-25T19:20:26.933Z,48.90
2019-02-25T19:22:58.193Z,49.00
2019-02-25T19:25:25.744Z,49.10
2019-02-25T19:27:54.450Z,49.30
2019-02-25T19:30:24.801Z,49.50
2019-02-25T19:32:52.383Z,49.70
2019-02-25T19:35:21.927Z,49.80
2019-02-25T19:37:49.923Z,50.00
2019-02-25T19:40:19.548Z,50.00
2019-02-25T19:42:51.352Z,50.20
2019-02-25T19:45:17.823Z,50.40
2019-02-25T19:47:46.012Z,50.60
2019-02-25T19:50:14.157Z,50.70
2019-02-25T19:52:44.362Z,50.80
2019-02-25T19:55:13.039Z,50.90
2019-02-25T19:57:45.475Z,51.00
2019-02-25T20:00:17.801Z,51.20
2019-02-25T20:02:44.990Z,51.40
2019-02-25T20:05:14.243Z,51.50
2019-02-25T20:07:42.443Z,51.70
2019-02-25T20:10:11.653Z,51.90
2019-02-25T20:12:39.914Z,52.10
2019-02-25T20:15:11.340Z,52.30
2019-02-25T20:17:39.908Z,52.40
2019-02-25T20:20:11.006Z,52.60
2019-02-25T20:22:38.707Z,52.90
2019-02-25T20:25:08.187Z,53.00
2019-02-25T20:27:36.097Z,53.20
2019-02-25T20:30:05.462Z,53.50
2019-02-25T20:32:36.323Z,53.50
2019-02-25T20:37:53.754Z,53.70
2019-02-25T20:40:21.867Z,53.70
2019-02-25T20:42:51.214Z,54.90
2019-02-25T20:45:22.956Z,54.70
2019-02-25T20:47:50.126Z,54.80
2019-02-25T20:50:19.578Z,54.80
2019-02-25T20:52:47.186Z,54.50
2019-02-25T20:55:14.842Z,55.00
2019-02-25T20:57:42.960Z,55.20
2019-02-25T21:00:15.423Z,55.30
2019-02-25T21:02:43.185Z,55.50
2019-02-25T21:05:13.928Z,55.50
2019-02-25T21:07:40.170Z,55.60
2019-02-25T21:10:08.907Z,55.70
2019-02-25T21:12:36.939Z,55.80
2019-02-25T21:15:07.094Z,56.00
2019-02-25T21:17:35.579Z,56.00
2019-02-25T21:20:07.069Z,56.20
2019-02-25T21:22:36.355Z,56.30
2019-02-25T21:25:04.879Z,56.50
2019-02-25T21:27:37.024Z,56.60
2019-02-25T21:30:09.092Z,56.80
2019-02-25T21:32:37.462Z,56.80
2019-02-25T21:35:06.855Z,57.00
2019-02-25T21:37:34.524Z,57.20
2019-02-25T21:40:02.899Z,57.30
2019-02-25T21:42:31.531Z,57.50
2019-02-25T21:45:00.178Z,57.50
2019-02-25T21:47:29.162Z,57.70
2019-02-25T21:49:59.075Z,57.80
2019-02-25T21:52:27.386Z,57.80
2019-02-25T21:54:55.037Z,58.10
2019-02-25T21:57:22.450Z,58.10
2019-02-25T21:59:49.787Z,58.30
2019-02-25T22:02:17.498Z,58.40
2019-02-25T22:04:47.307Z,58.50
2019-02-25T22:07:17.123Z,58.60
2019-02-25T22:09:45.781Z,58.70
2019-02-25T22:12:13.355Z,58.80
2019-02-25T22:14:41.310Z,59.00
2019-02-25T22:17:10.674Z,59.20
2019-02-25T22:19:39.794Z,59.20
2019-02-25T22:22:07.362Z,59.40
2019-02-25T22:24:36.242Z,59.50
2019-02-25T22:27:03.975Z,59.70
2019-02-25T22:29:31.595Z,59.80
2019-02-25T22:31:59.668Z,60.00
2019-02-25T22:34:28.414Z,60.20
2019-02-25T22:36:56.070Z,60.30
2019-02-25T22:39:25.218Z,60.50
2019-02-25T22:41:52.839Z,60.70
2019-02-25T22:44:20.360Z,60.70
2019-02-25T22:46:48.320Z,60.90
2019-02-25T22:49:15.750Z,61.10
2019-02-25T22:51:43.063Z,61.20
2019-02-25T22:54:12.535Z,61.30
2019-02-25T22:56:39.657Z,61.60
2019-02-25T22:59:07.576Z,61.70
2019-02-25T23:01:37.003Z,61.90
2019-02-25T23:04:04.418Z,62.10
2019-02-25T23:06:31.806Z,62.30
2019-02-25T23:08:59.187Z,62.60
2019-02-25T23:11:26.852Z,62.60
2019-02-25T23:13:54.854Z,62.80
2019-02-25T23:16:24.947Z,62.90
2019-02-25T23:18:51.965Z,63.10
2019-02-25T23:21:23.958Z,63.20
2019-02-25T23:23:51.227Z,63.40
2019-02-25T23:26:19.879Z,63.70
2019-02-25T23:28:48.932Z,64.40
2019-02-25T23:31:17.316Z,63.90
2019-02-25T23:33:47.234Z,64.30
2019-02-25T23:36:17.129Z,64.50
2019-02-25T23:38:44.767Z,64.70
2019-02-25T23:41:14.415Z,66.00
2019-02-25T23:43:42.334Z,66.30
2019-02-25T23:46:11.143Z,66.20
2019-02-25T23:48:41.132Z,66.20
2019-02-25T23:51:08.027Z,66.20
2019-02-25T23:53:35.539Z,66.40
2019-02-25T23:56:03.087Z,66.60
2019-02-25T23:58:30.499Z,66.70
